sensor_id;sensor_type;location;lat;lon;timestamp;P1;durP1;ratioP1;P2;durP2;ratioP2
25531;SDS011;13429;48.816;9.118;2022-07-17T00:00:19;5.32;;;2.80;;
25531;SDS011;13429;48.816;9.118;2022-07-17T00:02:45;5.63;;;3.15;;
25531;SDS011;13429;48.816;9.118;2022-07-17T00:05:13;7.82;;;3.13;;
25531;SDS011;13429;48.816;9.118;2022-07-17T00:07:39;3.88;;;2.75;;
25531;SDS011;13429;48.816;9.118;2022-07-17T00:10:05;8.05;;;3.58;;
25531;SDS011;13429;48.816;9.118;2022-07-17T00:12:31;7.35;;;3.45;;
25531;SDS011;13429;48.816;9.118;2022-07-17T00:14:57;6.82;;;3.88;;
25531;SDS011;13429;48.816;9.118;2022-07-17T00:17:23;4.88;;;3.22;;
25531;SDS011;13429;48.816;9.118;2022-07-17T00:19:49;4.43;;;2.78;;
25531;SDS011;13429;48.816;9.118;2022-07-17T00:22:15;4.55;;;2.90;;
25531;SDS011;13429;48.816;9.118;2022-07-17T00:24:41;5.97;;;3.28;;
25531;SDS011;13429;48.816;9.118;2022-07-17T00:27:07;4.90;;;3.17;;
25531;SDS011;13429;48.816;9.118;2022-07-17T00:29:33;5.90;;;2.92;;
25531;SDS011;13429;48.816;9.118;2022-07-17T00:31:59;5.38;;;3.50;;
25531;SDS011;13429;48.816;9.118;2022-07-17T00:34:25;4.75;;;3.03;;
25531;SDS011;13429;48.816;9.118;2022-07-17T00:36:52;3.97;;;2.90;;
25531;SDS011;13429;48.816;9.118;2022-07-17T00:39:18;6.50;;;3.33;;
25531;SDS011;13429;48.816;9.118;2022-07-17T00:41:44;3.70;;;2.67;;
25531;SDS011;13429;48.816;9.118;2022-07-17T00:44:10;6.90;;;3.78;;
25531;SDS011;13429;48.816;9.118;2022-07-17T00:46:39;6.15;;;3.50;;
25531;SDS011;13429;48.816;9.118;2022-07-17T00:49:06;6.63;;;3.72;;
25531;SDS011;13429;48.816;9.118;2022-07-17T00:51:32;4.75;;;3.13;;
25531;SDS011;13429;48.816;9.118;2022-07-17T00:53:59;5.10;;;3.67;;
25531;SDS011;13429;48.816;9.118;2022-07-17T00:56:25;6.28;;;3.47;;
25531;SDS011;13429;48.816;9.118;2022-07-17T00:58:52;6.70;;;3.75;;
25531;SDS011;13429;48.816;9.118;2022-07-17T01:01:19;6.18;;;3.55;;
25531;SDS011;13429;48.816;9.118;2022-07-17T01:03:45;5.80;;;3.30;;
25531;SDS011;13429;48.816;9.118;2022-07-17T01:06:11;5.60;;;3.13;;
25531;SDS011;13429;48.816;9.118;2022-07-17T01:08:37;4.65;;;3.42;;
25531;SDS011;13429;48.816;9.118;2022-07-17T01:11:04;5.88;;;3.63;;
25531;SDS011;13429;48.816;9.118;2022-07-17T01:13:31;6.25;;;3.72;;
25531;SDS011;13429;48.816;9.118;2022-07-17T01:15:57;7.97;;;3.78;;
25531;SDS011;13429;48.816;9.118;2022-07-17T01:18:23;7.88;;;3.95;;
25531;SDS011;13429;48.816;9.118;2022-07-17T01:20:50;4.85;;;3.22;;
25531;SDS011;13429;48.816;9.118;2022-07-17T01:23:16;4.68;;;3.55;;
25531;SDS011;13429;48.816;9.118;2022-07-17T01:25:43;6.13;;;3.60;;
25531;SDS011;13429;48.816;9.118;2022-07-17T01:28:10;4.75;;;3.25;;
25531;SDS011;13429;48.816;9.118;2022-07-17T01:30:36;5.07;;;3.47;;
25531;SDS011;13429;48.816;9.118;2022-07-17T01:33:02;8.73;;;3.70;;
25531;SDS011;13429;48.816;9.118;2022-07-17T01:35:28;10.38;;;4.40;;
25531;SDS011;13429;48.816;9.118;2022-07-17T01:37:54;4.13;;;3.55;;
25531;SDS011;13429;48.816;9.118;2022-07-17T01:40:20;5.60;;;3.58;;
25531;SDS011;13429;48.816;9.118;2022-07-17T01:42:50;5.65;;;3.72;;
25531;SDS011;13429;48.816;9.118;2022-07-17T01:45:17;6.05;;;3.92;;
25531;SDS011;13429;48.816;9.118;2022-07-17T01:47:43;4.97;;;3.45;;
25531;SDS011;13429;48.816;9.118;2022-07-17T01:50:10;5.53;;;3.85;;
25531;SDS011;13429;48.816;9.118;2022-07-17T01:52:37;5.57;;;3.88;;
25531;SDS011;13429;48.816;9.118;2022-07-17T01:55:04;7.18;;;4.00;;
25531;SDS011;13429;48.816;9.118;2022-07-17T01:57:30;6.35;;;4.10;;
25531;SDS011;13429;48.816;9.118;2022-07-17T01:59:56;5.15;;;3.90;;
25531;SDS011;13429;48.816;9.118;2022-07-17T02:02:22;7.55;;;4.53;;
25531;SDS011;13429;48.816;9.118;2022-07-17T02:04:48;6.90;;;4.18;;
25531;SDS011;13429;48.816;9.118;2022-07-17T02:07:14;5.30;;;3.35;;
25531;SDS011;13429;48.816;9.118;2022-07-17T02:09:40;6.68;;;3.63;;
25531;SDS011;13429;48.816;9.118;2022-07-17T02:12:06;4.97;;;3.90;;
25531;SDS011;13429;48.816;9.118;2022-07-17T02:14:32;8.32;;;4.13;;
25531;SDS011;13429;48.816;9.118;2022-07-17T02:16:58;7.30;;;3.75;;
25531;SDS011;13429;48.816;9.118;2022-07-17T02:19:24;6.43;;;4.30;;
25531;SDS011;13429;48.816;9.118;2022-07-17T02:21:50;8.15;;;3.97;;
25531;SDS011;13429;48.816;9.118;2022-07-17T02:24:16;4.70;;;3.55;;
25531;SDS011;13429;48.816;9.118;2022-07-17T02:26:42;5.78;;;3.42;;
25531;SDS011;13429;48.816;9.118;2022-07-17T02:29:08;6.00;;;3.50;;
25531;SDS011;13429;48.816;9.118;2022-07-17T02:31:34;7.65;;;4.28;;
25531;SDS011;13429;48.816;9.118;2022-07-17T02:34:00;7.47;;;4.15;;
25531;SDS011;13429;48.816;9.118;2022-07-17T02:36:26;5.43;;;3.65;;
25531;SDS011;13429;48.816;9.118;2022-07-17T02:38:52;6.38;;;3.95;;
25531;SDS011;13429;48.816;9.118;2022-07-17T02:41:18;6.28;;;4.15;;
25531;SDS011;13429;48.816;9.118;2022-07-17T02:43:44;6.60;;;3.90;;
25531;SDS011;13429;48.816;9.118;2022-07-17T02:46:10;5.43;;;3.40;;
25531;SDS011;13429;48.816;9.118;2022-07-17T02:48:38;8.32;;;4.22;;
25531;SDS011;13429;48.816;9.118;2022-07-17T02:51:04;5.15;;;3.53;;
25531;SDS011;13429;48.816;9.118;2022-07-17T02:53:31;4.95;;;4.00;;
25531;SDS011;13429;48.816;9.118;2022-07-17T02:55:57;6.32;;;3.95;;
25531;SDS011;13429;48.816;9.118;2022-07-17T02:58:23;5.75;;;4.32;;
25531;SDS011;13429;48.816;9.118;2022-07-17T03:00:50;5.30;;;3.95;;
25531;SDS011;13429;48.816;9.118;2022-07-17T03:03:16;8.05;;;4.55;;
25531;SDS011;13429;48.816;9.118;2022-07-17T03:05:44;5.32;;;4.40;;
25531;SDS011;13429;48.816;9.118;2022-07-17T03:08:10;5.50;;;4.20;;
25531;SDS011;13429;48.816;9.118;2022-07-17T03:10:36;6.45;;;3.88;;
25531;SDS011;13429;48.816;9.118;2022-07-17T03:13:02;5.57;;;4.43;;
25531;SDS011;13429;48.816;9.118;2022-07-17T03:15:28;5.25;;;4.22;;
25531;SDS011;13429;48.816;9.118;2022-07-17T03:17:54;5.18;;;4.60;;
25531;SDS011;13429;48.816;9.118;2022-07-17T03:20:20;4.57;;;3.53;;
25531;SDS011;13429;48.816;9.118;2022-07-17T03:22:46;9.10;;;4.03;;
25531;SDS011;13429;48.816;9.118;2022-07-17T03:25:12;6.93;;;4.57;;
25531;SDS011;13429;48.816;9.118;2022-07-17T03:27:38;8.32;;;4.60;;
25531;SDS011;13429;48.816;9.118;2022-07-17T03:30:05;6.18;;;4.07;;
25531;SDS011;13429;48.816;9.118;2022-07-17T03:32:31;8.38;;;4.40;;
25531;SDS011;13429;48.816;9.118;2022-07-17T03:34:57;4.38;;;3.70;;
25531;SDS011;13429;48.816;9.118;2022-07-17T03:37:23;5.45;;;4.22;;
25531;SDS011;13429;48.816;9.118;2022-07-17T03:39:49;6.43;;;4.80;;
25531;SDS011;13429;48.816;9.118;2022-07-17T03:42:15;7.75;;;4.90;;
25531;SDS011;13429;48.816;9.118;2022-07-17T03:44:41;9.52;;;4.90;;
25531;SDS011;13429;48.816;9.118;2022-07-17T03:47:07;10.63;;;4.45;;
25531;SDS011;13429;48.816;9.118;2022-07-17T03:49:33;7.15;;;4.65;;
25531;SDS011;13429;48.816;9.118;2022-07-17T03:51:59;9.15;;;4.70;;
25531;SDS011;13429;48.816;9.118;2022-07-17T03:54:25;6.68;;;4.93;;
25531;SDS011;13429;48.816;9.118;2022-07-17T03:56:51;6.35;;;3.97;;
25531;SDS011;13429;48.816;9.118;2022-07-17T03:59:17;5.13;;;4.15;;
25531;SDS011;13429;48.816;9.118;2022-07-17T04:01:43;5.72;;;4.25;;
25531;SDS011;13429;48.816;9.118;2022-07-17T04:04:09;8.13;;;4.18;;
25531;SDS011;13429;48.816;9.118;2022-07-17T04:06:35;6.60;;;4.30;;
25531;SDS011;13429;48.816;9.118;2022-07-17T04:09:01;6.45;;;4.82;;
25531;SDS011;13429;48.816;9.118;2022-07-17T04:11:27;5.65;;;4.30;;
25531;SDS011;13429;48.816;9.118;2022-07-17T04:13:53;5.05;;;4.55;;
25531;SDS011;13429;48.816;9.118;2022-07-17T04:16:19;5.95;;;4.55;;
25531;SDS011;13429;48.816;9.118;2022-07-17T04:18:45;6.70;;;4.70;;
25531;SDS011;13429;48.816;9.118;2022-07-17T04:21:11;6.22;;;4.60;;
25531;SDS011;13429;48.816;9.118;2022-07-17T04:23:38;6.45;;;4.63;;
25531;SDS011;13429;48.816;9.118;2022-07-17T04:26:05;4.93;;;4.43;;
25531;SDS011;13429;48.816;9.118;2022-07-17T04:28:34;6.72;;;4.60;;
25531;SDS011;13429;48.816;9.118;2022-07-17T04:31:00;5.95;;;4.15;;
25531;SDS011;13429;48.816;9.118;2022-07-17T04:33:26;4.63;;;3.95;;
25531;SDS011;13429;48.816;9.118;2022-07-17T04:35:52;7.38;;;4.20;;
25531;SDS011;13429;48.816;9.118;2022-07-17T04:38:19;6.03;;;4.60;;
25531;SDS011;13429;48.816;9.118;2022-07-17T04:40:45;5.43;;;4.32;;
25531;SDS011;13429;48.816;9.118;2022-07-17T04:43:14;6.80;;;4.80;;
25531;SDS011;13429;48.816;9.118;2022-07-17T04:45:40;7.38;;;4.57;;
25531;SDS011;13429;48.816;9.118;2022-07-17T04:48:06;5.50;;;4.75;;
25531;SDS011;13429;48.816;9.118;2022-07-17T04:50:32;6.38;;;4.70;;
25531;SDS011;13429;48.816;9.118;2022-07-17T04:52:58;6.28;;;4.68;;
25531;SDS011;13429;48.816;9.118;2022-07-17T04:55:25;8.45;;;4.72;;
25531;SDS011;13429;48.816;9.118;2022-07-17T04:57:51;6.88;;;4.53;;
25531;SDS011;13429;48.816;9.118;2022-07-17T05:00:17;10.15;;;4.60;;
25531;SDS011;13429;48.816;9.118;2022-07-17T05:02:43;8.02;;;5.75;;
25531;SDS011;13429;48.816;9.118;2022-07-17T05:05:09;7.28;;;5.13;;
25531;SDS011;13429;48.816;9.118;2022-07-17T05:07:35;5.80;;;4.43;;
25531;SDS011;13429;48.816;9.118;2022-07-17T05:10:03;9.10;;;5.43;;
25531;SDS011;13429;48.816;9.118;2022-07-17T05:12:29;8.05;;;5.15;;
25531;SDS011;13429;48.816;9.118;2022-07-17T05:14:55;6.53;;;5.28;;
25531;SDS011;13429;48.816;9.118;2022-07-17T05:17:21;6.40;;;5.22;;
25531;SDS011;13429;48.816;9.118;2022-07-17T05:19:47;6.03;;;4.97;;
25531;SDS011;13429;48.816;9.118;2022-07-17T05:22:13;7.72;;;5.93;;
25531;SDS011;13429;48.816;9.118;2022-07-17T05:24:39;7.07;;;4.63;;
25531;SDS011;13429;48.816;9.118;2022-07-17T05:27:05;7.32;;;4.80;;
25531;SDS011;13429;48.816;9.118;2022-07-17T05:29:31;8.32;;;5.07;;
25531;SDS011;13429;48.816;9.118;2022-07-17T05:31:57;6.97;;;5.00;;
25531;SDS011;13429;48.816;9.118;2022-07-17T05:34:23;7.90;;;4.85;;
25531;SDS011;13429;48.816;9.118;2022-07-17T05:36:49;6.70;;;5.05;;
25531;SDS011;13429;48.816;9.118;2022-07-17T05:39:15;5.65;;;4.43;;
25531;SDS011;13429;48.816;9.118;2022-07-17T05:41:41;9.50;;;4.78;;
25531;SDS011;13429;48.816;9.118;2022-07-17T05:44:07;6.90;;;4.43;;
25531;SDS011;13429;48.816;9.118;2022-07-17T05:46:33;6.82;;;4.90;;
25531;SDS011;13429;48.816;9.118;2022-07-17T05:48:59;5.82;;;4.38;;
25531;SDS011;13429;48.816;9.118;2022-07-17T05:51:25;10.35;;;5.40;;
25531;SDS011;13429;48.816;9.118;2022-07-17T05:53:51;6.70;;;4.20;;
25531;SDS011;13429;48.816;9.118;2022-07-17T05:56:17;10.25;;;4.45;;
25531;SDS011;13429;48.816;9.118;2022-07-17T05:58:44;6.85;;;4.03;;
25531;SDS011;13429;48.816;9.118;2022-07-17T06:01:10;8.57;;;5.70;;
25531;SDS011;13429;48.816;9.118;2022-07-17T06:03:36;6.05;;;4.72;;
25531;SDS011;13429;48.816;9.118;2022-07-17T06:06:02;9.07;;;4.75;;
25531;SDS011;13429;48.816;9.118;2022-07-17T06:08:28;7.15;;;4.70;;
25531;SDS011;13429;48.816;9.118;2022-07-17T06:10:54;6.63;;;4.55;;
25531;SDS011;13429;48.816;9.118;2022-07-17T06:13:20;8.85;;;4.65;;
25531;SDS011;13429;48.816;9.118;2022-07-17T06:15:46;8.05;;;5.20;;
25531;SDS011;13429;48.816;9.118;2022-07-17T06:18:13;5.55;;;4.05;;
25531;SDS011;13429;48.816;9.118;2022-07-17T06:20:39;8.55;;;4.82;;
25531;SDS011;13429;48.816;9.118;2022-07-17T06:23:05;4.65;;;3.90;;
25531;SDS011;13429;48.816;9.118;2022-07-17T06:25:31;5.93;;;4.47;;
25531;SDS011;13429;48.816;9.118;2022-07-17T06:27:57;5.72;;;4.07;;
25531;SDS011;13429;48.816;9.118;2022-07-17T06:30:23;7.05;;;4.38;;
25531;SDS011;13429;48.816;9.118;2022-07-17T06:32:49;7.30;;;4.13;;
25531;SDS011;13429;48.816;9.118;2022-07-17T06:35:14;6.13;;;3.72;;
25531;SDS011;13429;48.816;9.118;2022-07-17T06:37:40;6.10;;;4.50;;
25531;SDS011;13429;48.816;9.118;2022-07-17T06:40:07;8.48;;;5.28;;
25531;SDS011;13429;48.816;9.118;2022-07-17T06:42:33;7.18;;;4.00;;
25531;SDS011;13429;48.816;9.118;2022-07-17T06:44:59;9.50;;;4.38;;
25531;SDS011;13429;48.816;9.118;2022-07-17T06:47:25;4.00;;;3.33;;
25531;SDS011;13429;48.816;9.118;2022-07-17T06:49:51;6.60;;;3.50;;
25531;SDS011;13429;48.816;9.118;2022-07-17T06:52:17;3.90;;;3.10;;
25531;SDS011;13429;48.816;9.118;2022-07-17T06:54:43;5.68;;;2.78;;
25531;SDS011;13429;48.816;9.118;2022-07-17T06:57:09;6.35;;;3.50;;
25531;SDS011;13429;48.816;9.118;2022-07-17T06:59:35;5.53;;;3.65;;
25531;SDS011;13429;48.816;9.118;2022-07-17T07:02:00;8.00;;;3.38;;
25531;SDS011;13429;48.816;9.118;2022-07-17T07:04:26;6.53;;;3.30;;
25531;SDS011;13429;48.816;9.118;2022-07-17T07:06:53;5.55;;;3.60;;
25531;SDS011;13429;48.816;9.118;2022-07-17T07:09:19;5.93;;;3.38;;
25531;SDS011;13429;48.816;9.118;2022-07-17T07:11:45;6.65;;;3.17;;
25531;SDS011;13429;48.816;9.118;2022-07-17T07:14:11;5.90;;;2.58;;
25531;SDS011;13429;48.816;9.118;2022-07-17T07:16:37;5.30;;;2.72;;
25531;SDS011;13429;48.816;9.118;2022-07-17T07:19:03;3.97;;;2.80;;
25531;SDS011;13429;48.816;9.118;2022-07-17T07:21:29;9.18;;;3.08;;
25531;SDS011;13429;48.816;9.118;2022-07-17T07:23:55;6.28;;;2.88;;
25531;SDS011;13429;48.816;9.118;2022-07-17T07:26:22;3.28;;;2.60;;
25531;SDS011;13429;48.816;9.118;2022-07-17T07:28:48;4.63;;;2.70;;
25531;SDS011;13429;48.816;9.118;2022-07-17T07:31:14;3.83;;;2.35;;
25531;SDS011;13429;48.816;9.118;2022-07-17T07:33:42;5.05;;;2.13;;
25531;SDS011;13429;48.816;9.118;2022-07-17T07:36:08;4.07;;;2.40;;
25531;SDS011;13429;48.816;9.118;2022-07-17T07:38:34;3.20;;;2.60;;
25531;SDS011;13429;48.816;9.118;2022-07-17T07:41:00;4.18;;;2.53;;
25531;SDS011;13429;48.816;9.118;2022-07-17T07:43:26;3.55;;;2.30;;
25531;SDS011;13429;48.816;9.118;2022-07-17T07:45:52;3.95;;;2.28;;
25531;SDS011;13429;48.816;9.118;2022-07-17T07:48:18;3.60;;;2.10;;
25531;SDS011;13429;48.816;9.118;2022-07-17T07:50:44;3.28;;;2.20;;
25531;SDS011;13429;48.816;9.118;2022-07-17T07:53:10;2.90;;;2.45;;
25531;SDS011;13429;48.816;9.118;2022-07-17T07:55:36;4.57;;;2.53;;
25531;SDS011;13429;48.816;9.118;2022-07-17T07:58:06;6.85;;;2.00;;
25531;SDS011;13429;48.816;9.118;2022-07-17T08:00:32;4.47;;;2.40;;
25531;SDS011;13429;48.816;9.118;2022-07-17T08:02:59;2.38;;;2.03;;
25531;SDS011;13429;48.816;9.118;2022-07-17T08:05:25;7.05;;;2.20;;
25531;SDS011;13429;48.816;9.118;2022-07-17T08:07:51;2.63;;;1.70;;
25531;SDS011;13429;48.816;9.118;2022-07-17T08:10:17;3.63;;;2.33;;
25531;SDS011;13429;48.816;9.118;2022-07-17T08:12:43;2.80;;;2.00;;
25531;SDS011;13429;48.816;9.118;2022-07-17T08:15:09;2.53;;;2.03;;
25531;SDS011;13429;48.816;9.118;2022-07-17T08:17:35;3.85;;;1.75;;
25531;SDS011;13429;48.816;9.118;2022-07-17T08:20:01;3.22;;;1.60;;
25531;SDS011;13429;48.816;9.118;2022-07-17T08:22:27;2.15;;;1.63;;
25531;SDS011;13429;48.816;9.118;2022-07-17T08:24:53;4.32;;;2.20;;
25531;SDS011;13429;48.816;9.118;2022-07-17T08:27:19;3.13;;;2.08;;
25531;SDS011;13429;48.816;9.118;2022-07-17T08:29:46;4.63;;;1.83;;
25531;SDS011;13429;48.816;9.118;2022-07-17T08:32:12;2.60;;;1.73;;
25531;SDS011;13429;48.816;9.118;2022-07-17T08:34:38;5.05;;;2.30;;
25531;SDS011;13429;48.816;9.118;2022-07-17T08:37:04;4.57;;;2.17;;
25531;SDS011;13429;48.816;9.118;2022-07-17T08:39:30;4.07;;;1.80;;
25531;SDS011;13429;48.816;9.118;2022-07-17T08:41:56;2.88;;;1.70;;
25531;SDS011;13429;48.816;9.118;2022-07-17T08:44:22;3.38;;;1.52;;
25531;SDS011;13429;48.816;9.118;2022-07-17T08:46:48;2.67;;;1.83;;
25531;SDS011;13429;48.816;9.118;2022-07-17T08:49:14;2.88;;;1.83;;
25531;SDS011;13429;48.816;9.118;2022-07-17T08:51:45;2.60;;;1.70;;
25531;SDS011;13429;48.816;9.118;2022-07-17T08:54:12;8.00;;;1.92;;
25531;SDS011;13429;48.816;9.118;2022-07-17T08:56:38;5.38;;;1.95;;
25531;SDS011;13429;48.816;9.118;2022-07-17T08:59:04;3.25;;;1.85;;
25531;SDS011;13429;48.816;9.118;2022-07-17T09:01:31;4.90;;;2.10;;
25531;SDS011;13429;48.816;9.118;2022-07-17T09:03:59;3.65;;;1.60;;
25531;SDS011;13429;48.816;9.118;2022-07-17T09:06:25;5.63;;;1.95;;
25531;SDS011;13429;48.816;9.118;2022-07-17T09:09:11;2.33;;;1.70;;
25531;SDS011;13429;48.816;9.118;2022-07-17T09:11:42;3.70;;;1.60;;
25531;SDS011;13429;48.816;9.118;2022-07-17T09:14:08;2.28;;;1.70;;
25531;SDS011;13429;48.816;9.118;2022-07-17T09:16:35;2.28;;;1.80;;
25531;SDS011;13429;48.816;9.118;2022-07-17T09:19:02;4.57;;;2.92;;
25531;SDS011;13429;48.816;9.118;2022-07-17T09:21:28;3.20;;;2.03;;
25531;SDS011;13429;48.816;9.118;2022-07-17T09:23:59;6.40;;;1.98;;
25531;SDS011;13429;48.816;9.118;2022-07-17T09:26:25;2.88;;;1.90;;
25531;SDS011;13429;48.816;9.118;2022-07-17T09:28:51;5.40;;;2.28;;
25531;SDS011;13429;48.816;9.118;2022-07-17T09:31:29;2.30;;;1.60;;
25531;SDS011;13429;48.816;9.118;2022-07-17T09:33:55;3.45;;;1.70;;
25531;SDS011;13429;48.816;9.118;2022-07-17T09:36:22;5.47;;;2.30;;
25531;SDS011;13429;48.816;9.118;2022-07-17T09:38:48;2.17;;;1.42;;
25531;SDS011;13429;48.816;9.118;2022-07-17T09:41:15;2.75;;;1.50;;
25531;SDS011;13429;48.816;9.118;2022-07-17T09:43:51;3.53;;;1.60;;
25531;SDS011;13429;48.816;9.118;2022-07-17T09:46:22;3.05;;;1.77;;
25531;SDS011;13429;48.816;9.118;2022-07-17T09:48:52;2.05;;;1.70;;
25531;SDS011;13429;48.816;9.118;2022-07-17T09:51:20;4.70;;;3.05;;
25531;SDS011;13429;48.816;9.118;2022-07-17T09:53:47;2.90;;;1.90;;
25531;SDS011;13429;48.816;9.118;2022-07-17T09:56:17;2.42;;;1.63;;
25531;SDS011;13429;48.816;9.118;2022-07-17T09:58:53;3.00;;;1.60;;
25531;SDS011;13429;48.816;9.118;2022-07-17T10:01:19;2.13;;;1.27;;
25531;SDS011;13429;48.816;9.118;2022-07-17T10:03:45;1.80;;;1.42;;
25531;SDS011;13429;48.816;9.118;2022-07-17T10:06:14;3.92;;;1.50;;
25531;SDS011;13429;48.816;9.118;2022-07-17T10:08:40;3.40;;;1.27;;
25531;SDS011;13429;48.816;9.118;2022-07-17T10:11:07;2.30;;;1.27;;
25531;SDS011;13429;48.816;9.118;2022-07-17T10:13:33;4.78;;;1.35;;
25531;SDS011;13429;48.816;9.118;2022-07-17T10:16:00;1.52;;;1.33;;
25531;SDS011;13429;48.816;9.118;2022-07-17T10:18:40;2.33;;;1.33;;
25531;SDS011;13429;48.816;9.118;2022-07-17T10:23:35;2.55;;;1.17;;
25531;SDS011;13429;48.816;9.118;2022-07-17T10:26:01;2.05;;;1.52;;
25531;SDS011;13429;48.816;9.118;2022-07-17T10:28:38;2.55;;;1.40;;
25531;SDS011;13429;48.816;9.118;2022-07-17T10:31:04;2.65;;;1.30;;
25531;SDS011;13429;48.816;9.118;2022-07-17T10:33:30;2.50;;;1.20;;
25531;SDS011;13429;48.816;9.118;2022-07-17T10:35:56;2.15;;;1.15;;
25531;SDS011;13429;48.816;9.118;2022-07-17T10:38:24;2.60;;;0.93;;
25531;SDS011;13429;48.816;9.118;2022-07-17T10:41:01;2.75;;;1.50;;
25531;SDS011;13429;48.816;9.118;2022-07-17T10:43:27;2.03;;;1.30;;
25531;SDS011;13429;48.816;9.118;2022-07-17T10:45:53;1.65;;;1.20;;
25531;SDS011;13429;48.816;9.118;2022-07-17T10:48:20;2.08;;;1.10;;
25531;SDS011;13429;48.816;9.118;2022-07-17T10:50:49;2.55;;;1.38;;
25531;SDS011;13429;48.816;9.118;2022-07-17T10:55:43;4.43;;;1.25;;
25531;SDS011;13429;48.816;9.118;2022-07-17T10:58:16;2.05;;;1.27;;
25531;SDS011;13429;48.816;9.118;2022-07-17T11:00:43;1.67;;;1.30;;
25531;SDS011;13429;48.816;9.118;2022-07-17T11:03:12;2.20;;;1.20;;
25531;SDS011;13429;48.816;9.118;2022-07-17T11:05:38;4.97;;;1.13;;
25531;SDS011;13429;48.816;9.118;2022-07-17T11:08:04;1.85;;;1.27;;
25531;SDS011;13429;48.816;9.118;2022-07-17T11:10:34;4.05;;;1.52;;
25531;SDS011;13429;48.816;9.118;2022-07-17T11:13:07;1.83;;;1.33;;
25531;SDS011;13429;48.816;9.118;2022-07-17T11:18:16;2.65;;;1.30;;
25531;SDS011;13429;48.816;9.118;2022-07-17T11:21:01;3.13;;;1.05;;
25531;SDS011;13429;48.816;9.118;2022-07-17T11:23:29;2.08;;;1.20;;
25531;SDS011;13429;48.816;9.118;2022-07-17T11:26:05;3.42;;;1.10;;
25531;SDS011;13429;48.816;9.118;2022-07-17T11:31:01;2.60;;;1.77;;
25531;SDS011;13429;48.816;9.118;2022-07-17T11:33:27;2.33;;;1.48;;
25531;SDS011;13429;48.816;9.118;2022-07-17T11:35:53;2.00;;;1.10;;
25531;SDS011;13429;48.816;9.118;2022-07-17T11:38:26;3.78;;;1.60;;
25531;SDS011;13429;48.816;9.118;2022-07-17T11:40:52;2.63;;;1.38;;
25531;SDS011;13429;48.816;9.118;2022-07-17T11:43:18;1.73;;;1.13;;
25531;SDS011;13429;48.816;9.118;2022-07-17T11:45:44;2.42;;;1.13;;
25531;SDS011;13429;48.816;9.118;2022-07-17T11:48:10;3.22;;;1.45;;
25531;SDS011;13429;48.816;9.118;2022-07-17T11:50:36;2.10;;;1.27;;
25531;SDS011;13429;48.816;9.118;2022-07-17T11:53:03;2.05;;;1.13;;
25531;SDS011;13429;48.816;9.118;2022-07-17T11:55:39;2.88;;;1.42;;
25531;SDS011;13429;48.816;9.118;2022-07-17T11:58:06;2.28;;;1.10;;
25531;SDS011;13429;48.816;9.118;2022-07-17T12:00:32;2.80;;;1.10;;
25531;SDS011;13429;48.816;9.118;2022-07-17T12:03:03;1.30;;;1.00;;
25531;SDS011;13429;48.816;9.118;2022-07-17T12:05:30;4.05;;;1.40;;
25531;SDS011;13429;48.816;9.118;2022-07-17T12:07:57;2.33;;;1.45;;
25531;SDS011;13429;48.816;9.118;2022-07-17T12:10:24;1.83;;;1.45;;
25531;SDS011;13429;48.816;9.118;2022-07-17T12:12:51;1.88;;;1.33;;
25531;SDS011;13429;48.816;9.118;2022-07-17T12:15:17;1.77;;;1.15;;
25531;SDS011;13429;48.816;9.118;2022-07-17T12:17:43;1.33;;;1.05;;
25531;SDS011;13429;48.816;9.118;2022-07-17T12:20:09;3.10;;;1.73;;
25531;SDS011;13429;48.816;9.118;2022-07-17T12:22:45;3.70;;;1.42;;
25531;SDS011;13429;48.816;9.118;2022-07-17T12:25:27;2.28;;;1.38;;
25531;SDS011;13429;48.816;9.118;2022-07-17T12:27:53;1.83;;;1.13;;
25531;SDS011;13429;48.816;9.118;2022-07-17T12:30:20;2.65;;;1.25;;
25531;SDS011;13429;48.816;9.118;2022-07-17T12:32:46;3.10;;;1.30;;
25531;SDS011;13429;48.816;9.118;2022-07-17T12:35:15;2.60;;;1.10;;
25531;SDS011;13429;48.816;9.118;2022-07-17T12:37:41;1.48;;;1.27;;
25531;SDS011;13429;48.816;9.118;2022-07-17T12:40:07;3.60;;;1.27;;
25531;SDS011;13429;48.816;9.118;2022-07-17T12:42:33;4.18;;;1.35;;
25531;SDS011;13429;48.816;9.118;2022-07-17T12:44:59;2.72;;;1.70;;
25531;SDS011;13429;48.816;9.118;2022-07-17T12:47:27;2.20;;;1.30;;
25531;SDS011;13429;48.816;9.118;2022-07-17T12:49:53;2.10;;;1.30;;
25531;SDS011;13429;48.816;9.118;2022-07-17T12:52:19;3.22;;;1.30;;
25531;SDS011;13429;48.816;9.118;2022-07-17T12:54:45;4.22;;;1.48;;
25531;SDS011;13429;48.816;9.118;2022-07-17T12:57:11;1.40;;;1.08;;
25531;SDS011;13429;48.816;9.118;2022-07-17T12:59:37;2.17;;;1.52;;
25531;SDS011;13429;48.816;9.118;2022-07-17T13:02:03;2.17;;;1.27;;
25531;SDS011;13429;48.816;9.118;2022-07-17T13:04:29;3.50;;;1.65;;
25531;SDS011;13429;48.816;9.118;2022-07-17T13:06:55;3.75;;;1.40;;
25531;SDS011;13429;48.816;9.118;2022-07-17T13:09:21;1.77;;;1.38;;
25531;SDS011;13429;48.816;9.118;2022-07-17T13:11:47;4.88;;;1.50;;
25531;SDS011;13429;48.816;9.118;2022-07-17T13:14:13;2.42;;;1.42;;
25531;SDS011;13429;48.816;9.118;2022-07-17T13:16:41;2.08;;;1.40;;
25531;SDS011;13429;48.816;9.118;2022-07-17T13:19:07;3.45;;;1.50;;
25531;SDS011;13429;48.816;9.118;2022-07-17T13:21:33;1.75;;;1.40;;
25531;SDS011;13429;48.816;9.118;2022-07-17T13:24:00;1.90;;;1.50;;
25531;SDS011;13429;48.816;9.118;2022-07-17T13:26:26;1.60;;;1.50;;
25531;SDS011;13429;48.816;9.118;2022-07-17T13:28:52;1.55;;;1.27;;
25531;SDS011;13429;48.816;9.118;2022-07-17T13:31:18;2.33;;;1.55;;
25531;SDS011;13429;48.816;9.118;2022-07-17T13:33:44;2.13;;;1.30;;
25531;SDS011;13429;48.816;9.118;2022-07-17T13:36:10;1.70;;;1.20;;
25531;SDS011;13429;48.816;9.118;2022-07-17T13:38:36;1.83;;;1.00;;
25531;SDS011;13429;48.816;9.118;2022-07-17T13:41:02;1.77;;;1.40;;
25531;SDS011;13429;48.816;9.118;2022-07-17T13:43:28;1.67;;;1.00;;
25531;SDS011;13429;48.816;9.118;2022-07-17T13:45:54;1.65;;;1.20;;
25531;SDS011;13429;48.816;9.118;2022-07-17T13:48:20;1.90;;;1.20;;
25531;SDS011;13429;48.816;9.118;2022-07-17T13:50:46;6.35;;;1.50;;
25531;SDS011;13429;48.816;9.118;2022-07-17T13:53:12;2.75;;;1.55;;
25531;SDS011;13429;48.816;9.118;2022-07-17T13:55:38;2.30;;;1.30;;
25531;SDS011;13429;48.816;9.118;2022-07-17T13:58:04;5.93;;;1.42;;
25531;SDS011;13429;48.816;9.118;2022-07-17T14:00:32;1.58;;;1.02;;
25531;SDS011;13429;48.816;9.118;2022-07-17T14:02:58;1.98;;;1.30;;
25531;SDS011;13429;48.816;9.118;2022-07-17T14:05:24;2.53;;;1.58;;
25531;SDS011;13429;48.816;9.118;2022-07-17T14:07:50;6.57;;;1.50;;
25531;SDS011;13429;48.816;9.118;2022-07-17T14:10:16;2.13;;;1.20;;
25531;SDS011;13429;48.816;9.118;2022-07-17T14:12:42;1.55;;;1.27;;
25531;SDS011;13429;48.816;9.118;2022-07-17T14:15:09;2.33;;;1.40;;
25531;SDS011;13429;48.816;9.118;2022-07-17T14:17:38;2.30;;;1.27;;
25531;SDS011;13429;48.816;9.118;2022-07-17T14:20:04;4.13;;;1.25;;
25531;SDS011;13429;48.816;9.118;2022-07-17T14:22:30;1.88;;;1.40;;
25531;SDS011;13429;48.816;9.118;2022-07-17T14:24:56;3.97;;;1.40;;
25531;SDS011;13429;48.816;9.118;2022-07-17T14:27:22;2.38;;;1.50;;
25531;SDS011;13429;48.816;9.118;2022-07-17T14:29:48;1.65;;;1.23;;
25531;SDS011;13429;48.816;9.118;2022-07-17T14:32:15;5.50;;;1.27;;
25531;SDS011;13429;48.816;9.118;2022-07-17T14:34:41;3.28;;;1.10;;
25531;SDS011;13429;48.816;9.118;2022-07-17T14:37:07;1.63;;;1.30;;
25531;SDS011;13429;48.816;9.118;2022-07-17T14:39:33;2.38;;;1.42;;
25531;SDS011;13429;48.816;9.118;2022-07-17T14:41:59;1.83;;;1.33;;
25531;SDS011;13429;48.816;9.118;2022-07-17T14:44:25;4.20;;;1.30;;
25531;SDS011;13429;48.816;9.118;2022-07-17T14:46:52;1.25;;;1.15;;
25531;SDS011;13429;48.816;9.118;2022-07-17T14:49:18;1.95;;;1.23;;
25531;SDS011;13429;48.816;9.118;2022-07-17T14:51:44;1.60;;;1.33;;
25531;SDS011;13429;48.816;9.118;2022-07-17T14:54:10;1.63;;;1.02;;